Time;durP1;ratioP1;P1;durP2;ratioP2;P2;SDS_P1;SDS_P2;PMS_P1;PMS_P2;Temp;Humidity;BMP_temperature;BMP_pressure;BME280_temperature;BME280_humidity;BME280_pressure;Samples;Min_cycle;Max_cycle;Signal;HPM_P1;HPM_P2
2023/05/12 00:01:05;;;;;;;14.90;4.20;;;10.10;99.90;;;;;;4417319;28;658115;-71
2023/05/12 00:03:53;;;;;;;12.13;4.50;;;10.00;99.90;;;;;;4400041;28;658987;-71
2023/05/12 00:06:40;;;;;;;8.80;4.00;;;9.90;99.90;;;;;;4404011;28;660768;-72
2023/05/12 00:09:27;;;;;;;12.97;4.90;;;9.90;99.90;;;;;;4427191;28;656779;-71
2023/05/12 00:12:15;;;;;;;11.53;4.47;;;9.90;99.90;;;;;;4413110;28;657814;-72
2023/05/12 00:15:04;;;;;;;10.83;4.60;;;9.90;99.90;;;;;;4424939;28;657925;-71
2023/05/12 00:17:52;;;;;;;9.07;3.93;;;9.90;99.90;;;;;;4404619;28;658474;-71
2023/05/12 00:20:39;;;;;;;8.50;4.17;;;9.80;99.90;;;;;;4424053;28;656682;-72
2023/05/12 00:23:26;;;;;;;7.53;3.70;;;9.80;99.90;;;;;;4400035;28;657331;-72
2023/05/12 00:26:13;;;;;;;13.00;4.60;;;9.80;99.90;;;;;;4416269;28;657107;-71
2023/05/12 00:29:00;;;;;;;16.67;4.73;;;9.80;99.90;;;;;;4396725;28;657463;-72
2023/05/12 00:31:49;;;;;;;11.40;4.40;;;9.70;99.90;;;;;;4421107;28;658616;-71
2023/05/12 00:34:36;;;;;;;9.53;3.97;;;9.70;99.90;;;;;;4403577;28;658345;-71
2023/05/12 00:37:24;;;;;;;9.80;4.13;;;9.80;99.90;;;;;;4425510;28;657190;-70
2023/05/12 00:40:11;;;;;;;14.40;4.50;;;9.80;99.90;;;;;;4400955;28;656683;-72
2023/05/12 00:42:58;;;;;;;14.43;4.50;;;9.80;99.90;;;;;;4423032;28;657722;-71
2023/05/12 00:45:46;;;;;;;12.00;4.50;;;9.80;99.90;;;;;;4390169;28;658621;-73
2023/05/12 00:48:34;;;;;;;20.73;7.43;;;9.80;99.90;;;;;;4376379;28;657888;-71
2023/05/12 00:51:21;;;;;;;13.30;4.93;;;9.70;99.90;;;;;;4371122;28;657567;-71
2023/05/12 00:54:09;;;;;;;14.20;5.20;;;9.80;99.90;;;;;;4420788;28;658895;-71
2023/05/12 00:56:56;;;;;;;14.43;4.63;;;9.70;99.90;;;;;;4403058;28;658106;-71
2023/05/12 00:59:43;;;;;;;13.33;3.93;;;9.60;99.90;;;;;;4430488;28;658961;-71
2023/05/12 01:02:30;;;;;;;13.73;5.00;;;9.60;99.90;;;;;;4398328;28;657397;-71
2023/05/12 01:05:19;;;;;;;11.73;4.80;;;9.50;99.90;;;;;;4423736;28;658039;-70
2023/05/12 01:08:06;;;;;;;10.43;4.57;;;9.40;99.90;;;;;;4405078;28;658164;-71
2023/05/12 01:10:54;;;;;;;15.20;5.07;;;9.30;99.90;;;;;;4421794;28;658324;-71
2023/05/12 01:13:41;;;;;;;21.37;7.30;;;9.30;99.90;;;;;;4401768;28;657709;-71
2023/05/12 01:16:31;;;;;;;10.17;5.20;;;9.30;99.90;;;;;;4424876;28;658602;-71
2023/05/12 01:19:25;;;;;;;18.87;6.47;;;9.20;99.90;;;;;;4392222;28;657551;-71
2023/05/12 01:22:13;;;;;;;21.47;6.77;;;9.10;99.90;;;;;;4394366;28;657997;-71
2023/05/12 01:25:03;;;;;;;35.67;11.53;;;9.00;99.90;;;;;;4419566;28;657543;-71
2023/05/12 01:27:52;;;;;;;16.33;6.90;;;8.90;99.90;;;;;;4429387;28;658763;-71
2023/05/12 01:30:40;;;;;;;21.57;7.47;;;8.90;99.90;;;;;;4444153;28;657968;-71
2023/05/12 01:33:27;;;;;;;18.83;6.50;;;8.80;99.90;;;;;;4409490;28;657722;-71
2023/05/12 01:36:15;;;;;;;12.50;5.57;;;8.80;99.90;;;;;;4430462;28;657647;-72
2023/05/12 01:39:02;;;;;;;17.43;6.10;;;8.70;99.90;;;;;;4437937;28;658447;-71
2023/05/12 01:41:50;;;;;;;11.17;5.17;;;8.60;99.90;;;;;;4439468;28;657724;-72
2023/05/12 01:44:40;;;;;;;10.30;5.10;;;8.50;99.90;;;;;;4442790;28;656824;-71
2023/05/12 01:47:27;;;;;;;10.87;5.17;;;8.50;99.90;;;;;;4418224;28;658275;-72
2023/05/12 01:50:14;;;;;;;10.93;5.15;;;8.50;99.90;;;;;;4435504;28;657766;-72
2023/05/12 01:53:01;;;;;;;12.63;4.53;;;8.50;99.90;;;;;;4418004;28;657556;-71
2023/05/12 01:55:49;;;;;;;9.63;4.17;;;8.40;99.90;;;;;;4439777;28;658442;-71
2023/05/12 01:58:36;;;;;;;10.13;4.80;;;8.40;99.90;;;;;;4421264;28;657367;-71
2023/05/12 02:01:27;;;;;;;14.63;5.47;;;8.40;99.90;;;;;;4441448;28;658200;-70
2023/05/12 02:04:14;;;;;;;16.20;6.88;;;8.40;99.90;;;;;;4415288;28;658124;-71
2023/05/12 02:07:02;;;;;;;35.43;11.33;;;8.40;99.90;;;;;;4411385;28;658039;-72
2023/05/12 02:09:49;;;;;;;16.90;5.80;;;8.30;99.90;;;;;;4438272;28;658222;-71
2023/05/12 02:12:37;;;;;;;22.20;9.30;;;8.30;99.90;;;;;;4421620;28;657562;-71
2023/05/12 02:15:25;;;;;;;15.77;6.70;;;8.30;99.90;;;;;;4437130;28;657555;-71
2023/05/12 02:18:13;;;;;;;21.27;7.03;;;8.20;99.90;;;;;;4423017;28;658041;-71
2023/05/12 02:21:00;;;;;;;11.50;5.63;;;8.10;99.90;;;;;;4418969;28;658041;-72
2023/05/12 02:23:48;;;;;;;9.60;4.77;;;8.10;99.90;;;;;;4434982;28;658629;-71
2023/05/12 02:26:35;;;;;;;11.87;4.73;;;8.10;99.90;;;;;;4432168;28;656373;-71
2023/05/12 02:29:22;;;;;;;8.00;4.47;;;8.10;99.90;;;;;;4439591;28;658335;-71
2023/05/12 02:32:10;;;;;;;11.00;4.37;;;8.10;99.90;;;;;;4445153;28;656599;-71
2023/05/12 02:34:59;;;;;;;9.13;4.37;;;8.10;99.90;;;;;;4445298;28;658493;-71
2023/05/12 02:37:47;;;;;;;14.50;5.30;;;8.10;99.90;;;;;;4419900;28;656781;-71
2023/05/12 02:40:34;;;;;;;9.33;4.83;;;8.20;99.90;;;;;;4439375;28;657062;-72
2023/05/12 02:43:21;;;;;;;16.87;5.77;;;8.20;99.90;;;;;;4419413;28;656293;-71
2023/05/12 02:46:08;;;;;;;12.47;5.43;;;8.20;99.90;;;;;;4441595;28;659083;-71
2023/05/12 02:48:56;;;;;;;11.17;4.50;;;8.20;99.90;;;;;;4323079;28;657766;-73
2023/05/12 02:51:44;;;;;;;11.37;5.27;;;8.10;99.90;;;;;;4316636;28;657882;-72
2023/05/12 02:54:31;;;;;;;8.60;4.27;;;8.10;99.90;;;;;;4314323;28;658447;-72
2023/05/12 02:57:19;;;;;;;15.27;5.63;;;8.10;99.90;;;;;;4408739;28;658074;-72
2023/05/12 03:00:07;;;;;;;14.87;5.10;;;8.10;99.90;;;;;;4413974;28;657722;-71
2023/05/12 03:02:54;;;;;;;20.53;6.70;;;8.10;99.90;;;;;;4438412;28;657334;-71
2023/05/12 03:05:41;;;;;;;9.30;4.80;;;8.00;99.90;;;;;;4420279;28;658994;-71
2023/05/12 03:08:30;;;;;;;13.63;5.53;;;8.00;99.90;;;;;;4439132;28;656425;-71
2023/05/12 03:11:17;;;;;;;15.80;4.77;;;7.90;99.90;;;;;;4417395;28;657660;-71
2023/05/12 03:14:04;;;;;;;11.40;4.90;;;7.90;99.90;;;;;;4441313;28;656947;-70
2023/05/12 03:16:51;;;;;;;14.33;5.63;;;7.90;99.90;;;;;;4406981;28;657569;-71
2023/05/12 03:19:39;;;;;;;18.47;7.17;;;7.90;99.90;;;;;;4439341;28;658500;-70
2023/05/12 03:22:26;;;;;;;13.70;5.40;;;7.90;99.90;;;;;;4418843;28;657532;-71
2023/05/12 03:25:15;;;;;;;16.20;5.50;;;8.00;99.90;;;;;;4441092;28;657320;-71
2023/05/12 03:28:03;;;;;;;15.10;5.60;;;7.90;99.90;;;;;;4412393;28;658225;-71
2023/05/12 03:30:50;;;;;;;15.43;6.30;;;8.00;99.90;;;;;;4417478;28;657368;-72
2023/05/12 03:33:37;;;;;;;15.10;5.50;;;8.00;99.90;;;;;;4431161;28;658521;-71
2023/05/12 03:36:25;;;;;;;13.50;5.20;;;8.10;99.90;;;;;;4433012;28;657153;-72
2023/05/12 03:39:12;;;;;;;11.40;4.50;;;8.10;99.90;;;;;;4441865;28;657943;-71
2023/05/12 03:42:01;;;;;;;14.13;6.20;;;8.10;99.90;;;;;;4440461;28;657641;-71
2023/05/12 03:44:48;;;;;;;13.17;5.50;;;8.20;99.90;;;;;;4418049;28;658442;-71
2023/05/12 03:47:36;;;;;;;17.00;5.83;;;8.20;99.90;;;;;;4417094;28;657901;-71
2023/05/12 03:50:23;;;;;;;17.97;5.87;;;8.30;99.90;;;;;;4433440;28;658237;-71
2023/05/12 03:53:10;;;;;;;23.87;6.17;;;8.30;99.90;;;;;;4421998;28;659172;-72
2023/05/12 03:55:57;;;;;;;12.23;4.77;;;8.40;99.90;;;;;;4444068;28;657477;-71
2023/05/12 03:58:47;;;;;;;13.93;6.00;;;8.40;99.90;;;;;;4436359;28;657813;-73
2023/05/12 04:01:34;;;;;;;14.60;5.77;;;8.50;99.90;;;;;;4432983;28;657365;-71
2023/05/12 04:04:21;;;;;;;18.20;5.80;;;8.50;99.90;;;;;;4420144;28;658160;-71
2023/05/12 04:07:09;;;;;;;15.70;4.80;;;8.60;99.90;;;;;;4442941;28;657788;-71
2023/05/12 04:09:56;;;;;;;15.73;4.80;;;8.70;99.90;;;;;;4410319;28;657646;-71
2023/05/12 04:12:43;;;;;;;15.27;4.93;;;8.80;99.90;;;;;;4445456;28;657986;-71
2023/05/12 04:15:32;;;;;;;17.90;6.10;;;8.80;99.90;;;;;;4414453;28;657761;-72
2023/05/12 04:18:19;;;;;;;16.13;6.90;;;8.90;99.90;;;;;;4437777;28;657809;-71
2023/05/12 04:21:06;;;;;;;13.43;5.23;;;9.00;99.90;;;;;;4420747;28;658016;-71
2023/05/12 04:23:53;;;;;;;20.37;6.00;;;9.10;99.90;;;;;;4445415;28;658424;-71
2023/05/12 04:26:40;;;;;;;53.97;9.73;;;9.20;99.90;;;;;;4424290;28;658724;-71
2023/05/12 04:29:28;;;;;;;86.30;12.87;;;9.30;99.90;;;;;;4439364;28;658740;-71
2023/05/12 04:32:17;;;;;;;34.57;8.57;;;9.40;99.90;;;;;;4420159;28;658727;-72
2023/05/12 04:35:05;;;;;;;49.33;12.57;;;9.60;99.90;;;;;;4441538;28;657067;-71
2023/05/12 04:37:52;;;;;;;46.30;11.00;;;9.70;99.90;;;;;;4413448;28;659474;-71
2023/05/12 04:40:39;;;;;;;44.47;15.20;;;9.80;99.90;;;;;;4442895;28;659935;-71
2023/05/12 04:43:27;;;;;;;36.73;12.27;;;9.90;99.90;;;;;;4419267;28;659081;-71
2023/05/12 04:46:14;;;;;;;45.00;16.37;;;10.00;99.90;;;;;;4440873;28;658381;-71
2023/05/12 04:49:03;;;;;;;31.33;12.70;;;10.10;99.90;;;;;;4412192;28;660400;-72
2023/05/12 04:51:50;;;;;;;14.60;6.90;;;10.20;99.90;;;;;;4416367;28;659977;-73
2023/05/12 04:54:37;;;;;;;20.47;8.50;;;10.30;99.90;;;;;;4436372;28;659324;-71
2023/05/12 04:57:25;;;;;;;10.43;5.83;;;10.40;99.90;;;;;;4438340;28;659021;-72
2023/05/12 05:00:13;;;;;;;14.60;5.07;;;10.50;99.90;;;;;;4437721;28;660292;-71
2023/05/12 05:03:01;;;;;;;14.13;6.80;;;10.60;99.90;;;;;;4420076;28;658398;-71
2023/05/12 05:05:49;;;;;;;27.70;9.00;;;10.70;99.90;;;;;;4444914;28;659179;-71
2023/05/12 05:08:36;;;;;;;11.57;5.57;;;10.80;99.90;;;;;;4412612;28;658549;-72
2023/05/12 05:11:24;;;;;;;11.53;7.10;;;10.90;99.90;;;;;;4438102;28;658968;-76
2023/05/12 05:14:11;;;;;;;12.57;6.20;;;11.00;99.90;;;;;;4420832;28;658721;-76
2023/05/12 05:16:59;;;;;;;22.13;9.20;;;11.20;99.90;;;;;;4435579;28;659144;-76
2023/05/12 05:19:46;;;;;;;13.83;5.60;;;11.30;99.90;;;;;;4421282;28;658547;-73
2023/05/12 05:22:35;;;;;;;14.60;5.87;;;11.40;99.90;;;;;;4439790;28;659397;-75
2023/05/12 05:25:22;;;;;;;9.73;5.60;;;11.50;99.90;;;;;;4409545;28;659515;-77
2023/05/12 05:28:09;;;;;;;13.00;5.07;;;11.60;99.90;;;;;;4441508;28;657538;-74
2023/05/12 05:30:57;;;;;;;8.33;4.07;;;11.70;99.90;;;;;;4422126;28;659235;-75
2023/05/12 05:33:44;;;;;;;8.17;4.23;;;11.80;99.90;;;;;;4438982;28;657581;-76
2023/05/12 05:36:31;;;;;;;11.57;5.10;;;11.90;99.90;;;;;;4421031;28;657524;-75
2023/05/12 05:39:20;;;;;;;8.90;4.10;;;12.00;99.90;;;;;;4443696;28;659363;-76
2023/05/12 05:42:07;;;;;;;10.17;4.10;;;12.20;99.90;;;;;;4419778;28;658484;-75
2023/05/12 05:44:54;;;;;;;10.45;4.20;;;12.30;99.90;;;;;;4426118;28;658961;-74
2023/05/12 05:47:42;;;;;;;12.43;4.87;;;12.40;99.90;;;;;;4414242;28;658968;-77
2023/05/12 05:50:29;;;;;;;10.07;4.30;;;12.50;99.90;;;;;;4430815;28;658424;-74
2023/05/12 05:53:17;;;;;;;8.27;3.70;;;12.60;99.90;;;;;;4418400;28;658427;-76
2023/05/12 05:56:06;;;;;;;11.83;3.90;;;12.60;99.90;;;;;;4442706;28;657693;-77
2023/05/12 05:58:53;;;;;;;7.83;3.57;;;12.80;99.90;;;;;;4422232;28;659372;-74
2023/05/12 06:01:40;;;;;;;8.80;4.07;;;13.00;99.90;;;;;;4417175;28;657383;-72
2023/05/12 06:04:27;;;;;;;7.23;3.67;;;13.10;99.90;;;;;;4433397;28;659597;-74
2023/05/12 06:07:15;;;;;;;7.83;3.60;;;13.30;99.90;;;;;;4437020;28;657735;-72
2023/05/12 06:10:03;;;;;;;6.20;3.90;;;13.40;99.90;;;;;;4438878;28;657901;-75
2023/05/12 06:12:51;;;;;;;7.93;4.90;;;13.50;99.90;;;;;;4425756;28;657315;-71
2023/05/12 06:15:39;;;;;;;22.37;6.90;;;13.70;99.90;;;;;;4437277;28;657711;-74
2023/05/12 06:18:26;;;;;;;13.37;5.00;;;13.80;99.90;;;;;;4416516;28;658140;-74
2023/05/12 06:21:13;;;;;;;22.23;7.27;;;14.00;99.90;;;;;;4436146;28;659077;-76
2023/05/12 06:24:01;;;;;;;29.57;9.47;;;14.00;99.90;;;;;;4419542;28;658487;-73
2023/05/12 06:26:48;;;;;;;13.27;4.93;;;14.10;99.90;;;;;;4445305;28;659286;-75
2023/05/12 06:29:37;;;;;;;13.80;4.20;;;14.20;99.90;;;;;;4406589;28;658742;-72
2023/05/12 06:32:24;;;;;;;9.70;3.50;;;14.20;99.90;;;;;;4431863;28;660518;-76
2023/05/12 06:35:11;;;;;;;11.90;3.90;;;14.30;99.90;;;;;;4418328;28;658398;-75
2023/05/12 06:37:58;;;;;;;12.23;3.37;;;14.30;99.90;;;;;;4443371;28;660326;-75
2023/05/12 06:40:45;;;;;;;11.97;3.60;;;14.50;99.90;;;;;;4415361;28;658913;-73
2023/05/12 06:43:32;;;;;;;6.23;3.30;;;14.50;99.90;;;;;;4435239;28;659423;-73
2023/05/12 06:46:22;;;;;;;5.83;3.63;;;14.60;99.90;;;;;;4411321;28;657817;-72
2023/05/12 06:49:09;;;;;;;7.73;3.10;;;14.60;99.90;;;;;;4371526;28;658230;-72
2023/05/12 06:51:56;;;;;;;6.50;3.23;;;14.80;99.90;;;;;;4357697;28;658160;-74
2023/05/12 06:54:43;;;;;;;6.90;3.20;;;14.80;99.90;;;;;;4413603;28;658046;-74
2023/05/12 06:57:30;;;;;;;7.83;3.43;;;14.90;99.90;;;;;;4420857;28;657711;-74
2023/05/12 07:00:18;;;;;;;8.67;3.37;;;14.90;99.90;;;;;;4438778;28;658851;-73
2023/05/12 07:03:08;;;;;;;7.23;3.60;;;15.00;99.90;;;;;;4420916;28;658208;-73
2023/05/12 07:05:55;;;;;;;7.83;3.27;;;15.20;99.90;;;;;;4410254;28;658100;-74
2023/05/12 07:08:43;;;;;;;6.93;3.53;;;15.30;99.90;;;;;;4438232;28;658086;-73
2023/05/12 07:11:30;;;;;;;8.68;4.40;;;15.50;99.90;;;;;;4421582;28;657438;-72
2023/05/12 07:14:17;;;;;;;8.83;3.90;;;15.60;99.90;;;;;;4444278;28;657683;-76
2023/05/12 07:17:05;;;;;;;6.53;3.90;;;15.80;99.90;;;;;;4431502;28;657576;-71
2023/05/12 07:19:54;;;;;;;7.23;3.60;;;15.90;99.90;;;;;;4442265;28;658203;-75
2023/05/12 07:22:41;;;;;;;6.13;3.07;;;16.00;99.90;;;;;;4413847;28;657772;-75
2023/05/12 07:25:28;;;;;;;9.27;3.30;;;16.00;99.90;;;;;;4437888;28;658222;-75
2023/05/12 07:28:16;;;;;;;10.43;3.80;;;16.20;99.90;;;;;;4419709;28;658576;-72
2023/05/12 07:31:03;;;;;;;12.17;5.40;;;16.20;99.90;;;;;;4439565;28;659310;-75
2023/05/12 07:33:50;;;;;;;10.30;4.30;;;16.40;99.90;;;;;;4400909;28;658593;-73
2023/05/12 07:36:39;;;;;;;5.90;3.47;;;16.40;99.90;;;;;;4442285;28;658660;-73
2023/05/12 07:39:26;;;;;;;8.70;3.30;;;16.60;99.90;;;;;;4420320;28;657487;-73
2023/05/12 07:42:13;;;;;;;7.23;2.97;;;16.90;99.90;;;;;;4438700;28;657998;-75
2023/05/12 07:45:00;;;;;;;6.17;3.20;;;17.00;99.90;;;;;;4415476;28;657592;-71
2023/05/12 07:47:48;;;;;;;7.37;2.87;;;17.10;99.90;;;;;;4436452;28;658204;-75
2023/05/12 07:50:35;;;;;;;7.17;3.10;;;17.20;99.90;;;;;;4422699;28;657606;-73
2023/05/12 07:53:24;;;;;;;8.40;2.73;;;17.40;99.90;;;;;;4442901;28;658073;-76
2023/05/12 07:56:11;;;;;;;7.03;3.00;;;17.60;99.90;;;;;;4412585;28;657569;-75
2023/05/12 07:58:58;;;;;;;9.63;2.93;;;17.60;99.90;;;;;;4441585;28;657499;-74
2023/05/12 08:01:45;;;;;;;3.83;2.77;;;17.60;99.90;;;;;;4416599;28;657861;-73
2023/05/12 08:04:32;;;;;;;8.93;3.20;;;17.70;99.90;;;;;;4437182;28;658777;-75
2023/05/12 08:07:20;;;;;;;6.50;3.20;;;17.80;99.90;;;;;;4423055;28;657950;-73
2023/05/12 08:10:10;;;;;;;9.53;3.83;;;18.10;99.90;;;;;;4440243;28;657429;-75
2023/05/12 08:12:57;;;;;;;10.07;2.90;;;18.40;99.90;;;;;;4411988;28;658534;-75
2023/05/12 08:15:46;;;;;;;9.13;3.50;;;18.50;99.90;;;;;;4436512;28;658860;-75
2023/05/12 08:18:33;;;;;;;4.13;3.13;;;18.70;99.90;;;;;;4414213;28;658095;-76
2023/05/12 08:21:20;;;;;;;9.63;4.07;;;18.90;99.90;;;;;;4419389;28;658080;-74
2023/05/12 08:24:08;;;;;;;6.90;2.90;;;19.00;99.90;;;;;;4424362;28;658176;-73
2023/05/12 08:26:58;;;;;;;6.23;3.00;;;18.90;99.90;;;;;;4425222;28;658159;-72
2023/05/12 08:29:46;;;;;;;8.17;3.23;;;18.90;99.90;;;;;;4416547;28;657687;-76
2023/05/12 08:32:33;;;;;;;10.17;3.57;;;18.90;99.90;;;;;;4444068;28;658642;-75
2023/05/12 08:35:20;;;;;;;8.40;2.53;;;18.90;99.90;;;;;;4419213;28;658499;-75
2023/05/12 08:38:07;;;;;;;5.00;2.80;;;18.80;99.90;;;;;;4441648;28;657398;-75
2023/05/12 08:41:00;;;;;;;6.33;3.30;;;18.90;99.90;;;;;;4432382;28;657689;-72
2023/05/12 08:43:50;;;;;;;8.77;3.40;;;19.20;99.90;;;;;;4417237;28;658024;-75
2023/05/12 08:46:37;;;;;;;16.30;3.77;;;19.40;99.90;;;;;;4414532;28;658726;-73
2023/05/12 08:49:25;;;;;;;14.53;3.97;;;19.60;99.90;;;;;;4436460;28;659956;-74
2023/05/12 08:52:12;;;;;;;4.57;3.30;;;19.80;99.90;;;;;;4416498;28;659477;-75
2023/05/12 08:54:59;;;;;;;10.27;3.53;;;20.00;99.90;;;;;;4437539;28;658145;-75
2023/05/12 08:57:47;;;;;;;8.10;3.40;;;20.20;99.90;;;;;;4412077;28;658917;-75
2023/05/12 09:00:36;;;;;;;8.00;3.20;;;20.20;99.90;;;;;;4438270;28;658119;-75
2023/05/12 09:03:23;;;;;;;10.37;4.00;;;20.10;99.90;;;;;;4416053;28;659576;-74
2023/05/12 09:06:10;;;;;;;11.43;3.90;;;20.40;99.90;;;;;;4418933;28;658700;-74
2023/05/12 09:08:58;;;;;;;8.90;3.33;;;20.30;99.90;;;;;;4437088;28;658746;-75
2023/05/12 09:11:45;;;;;;;8.73;3.10;;;20.60;99.90;;;;;;4426726;28;657908;-73
2023/05/12 09:14:34;;;;;;;4.87;2.70;;;20.70;99.90;;;;;;4446038;28;657521;-73
2023/05/12 09:17:22;;;;;;;12.43;3.03;;;20.70;99.90;;;;;;4424051;28;657726;-75
2023/05/12 09:20:10;;;;;;;9.27;3.13;;;20.80;99.90;;;;;;4446343;28;658308;-75
2023/05/12 09:22:58;;;;;;;10.73;3.63;;;20.70;99.90;;;;;;4425079;28;657916;-76
2023/05/12 09:25:47;;;;;;;9.50;3.40;;;20.80;99.90;;;;;;4420117;28;659361;-75
2023/05/12 09:28:37;;;;;;;11.57;4.87;;;20.80;99.90;;;;;;4438452;28;657293;-75
2023/05/12 09:31:25;;;;;;;6.90;2.40;;;21.10;99.90;;;;;;4406730;28;660617;-75
2023/05/12 09:34:14;;;;;;;13.27;4.07;;;21.20;99.90;;;;;;4418598;28;659092;-75
2023/05/12 09:37:03;;;;;;;10.37;4.90;;;21.20;99.90;;;;;;4417441;28;659421;-76
2023/05/12 09:39:59;;;;;;;9.07;3.17;;;21.20;99.90;;;;;;4419922;28;658534;-76
2023/05/12 09:42:47;;;;;;;10.13;3.30;;;21.50;99.90;;;;;;4421491;28;658112;-75
2023/05/12 09:45:35;;;;;;;7.40;3.30;;;21.60;99.90;;;;;;4435287;28;658331;-75
2023/05/12 09:48:22;;;;;;;6.13;2.53;;;21.60;99.90;;;;;;4421141;28;657467;-75
2023/05/12 09:51:12;;;;;;;2.87;2.37;;;21.50;99.90;;;;;;4435748;28;658064;-72
2023/05/12 09:53:59;;;;;;;6.40;2.50;;;21.70;99.90;;;;;;4441784;28;657757;-77
2023/05/12 09:56:46;;;;;;;10.70;2.67;;;21.70;99.90;;;;;;4419425;28;657944;-76
2023/05/12 09:59:34;;;;;;;8.40;3.10;;;21.90;99.90;;;;;;4442552;28;658665;-72
2023/05/12 10:02:22;;;;;;;5.37;2.80;;;22.10;99.90;;;;;;4421969;28;658221;-74
2023/05/12 10:05:13;;;;;;;6.20;2.10;;;22.20;99.90;;;;;;4439828;28;657546;-75
2023/05/12 10:08:02;;;;;;;9.37;2.50;;;22.20;99.90;;;;;;4400365;28;657299;-74
2023/05/12 10:10:51;;;;;;;7.72;3.17;;;22.50;99.90;;;;;;4439420;28;657727;-75
2023/05/12 10:13:38;;;;;;;5.77;2.27;;;22.60;99.90;;;;;;4413624;28;658532;-75
2023/05/12 10:16:26;;;;;;;10.43;3.13;;;22.40;99.90;;;;;;4416109;28;659668;-74
2023/05/12 10:19:13;;;;;;;9.30;3.90;;;22.50;99.90;;;;;;4435965;28;659744;-76
2023/05/12 10:22:01;;;;;;;7.17;2.50;;;22.40;99.90;;;;;;4423705;28;658080;-72
2023/05/12 10:24:49;;;;;;;6.80;2.83;;;22.40;99.90;;;;;;4447141;28;659320;-75
2023/05/12 10:27:37;;;;;;;11.17;3.67;;;22.50;99.90;;;;;;4419135;28;658249;-75
2023/05/12 10:30:24;;;;;;;7.33;2.50;;;22.80;99.90;;;;;;4443074;28;658651;-74
2023/05/12 10:33:11;;;;;;;5.13;2.30;;;22.70;99.90;;;;;;4422865;28;658163;-75
2023/05/12 10:35:58;;;;;;;5.20;2.50;;;22.90;99.90;;;;;;4445123;28;658227;-74
2023/05/12 10:38:48;;;;;;;6.07;2.23;;;23.20;99.90;;;;;;4412318;28;657675;-74
2023/05/12 10:41:37;;;;;;;12.03;3.30;;;23.20;99.90;;;;;;4420302;28;658028;-72
2023/05/12 10:44:27;;;;;;;5.90;2.87;;;22.80;99.90;;;;;;4435795;28;658631;-75
2023/05/12 10:47:14;;;;;;;6.73;3.20;;;22.80;99.90;;;;;;4418294;28;657520;-76
2023/05/12 10:50:02;;;;;;;9.03;3.10;;;22.90;99.90;;;;;;4423791;28;657973;-75
2023/05/12 10:52:53;;;;;;;11.60;4.87;;;23.00;99.90;;;;;;4446584;28;657059;-75
2023/05/12 10:55:44;;;;;;;20.13;7.30;;;23.10;99.90;;;;;;4400193;28;658605;-75
2023/05/12 10:58:32;;;;;;;8.43;2.93;;;23.10;99.90;;;;;;4418109;28;658149;-75
2023/05/12 11:01:24;;;;;;;19.13;6.47;;;23.00;99.90;;;;;;4433431;28;658350;-74
2023/05/12 11:04:12;;;;;;;22.23;4.70;;;22.40;99.90;;;;;;4419976;28;658712;-76
2023/05/12 11:07:00;;;;;;;13.67;3.73;;;21.70;99.90;;;;;;4437323;28;658573;-76
2023/05/12 11:09:47;;;;;;;5.40;2.57;;;21.90;99.90;;;;;;4414981;28;659616;-75
2023/05/12 11:12:36;;;;;;;6.53;2.67;;;22.30;99.90;;;;;;4436780;28;657482;-71
2023/05/12 11:15:24;;;;;;;11.03;3.13;;;22.40;99.90;;;;;;4445361;28;658158;-75
2023/05/12 11:18:12;;;;;;;4.47;2.27;;;22.80;99.90;;;;;;4419510;28;658436;-77
2023/05/12 11:20:59;;;;;;;5.77;2.20;;;22.60;99.90;;;;;;4440841;28;657689;-75
2023/05/12 11:23:50;;;;;;;9.83;3.40;;;22.10;99.90;;;;;;4417018;28;657811;-75
2023/05/12 11:26:40;;;;;;;12.98;5.22;;;21.90;99.90;;;;;;4413849;28;658068;-76
2023/05/12 11:29:27;;;;;;;10.23;4.23;;;22.30;99.90;;;;;;4399962;28;660410;-74
2023/05/12 11:32:16;;;;;;;5.43;2.33;;;22.80;99.90;;;;;;4435699;28;658605;-76
2023/05/12 11:35:14;;;;;;;2.97;2.07;;;22.10;99.90;;;;;;4414738;28;658498;-75
2023/05/12 11:38:02;;;;;;;10.68;3.42;;;21.70;99.90;;;;;;4422004;28;657500;-76
2023/05/12 11:40:50;;;;;;;7.97;3.37;;;21.80;99.90;;;;;;4422303;28;658768;-77
2023/05/12 11:43:37;;;;;;;8.30;2.50;;;22.50;99.90;;;;;;4413217;28;658434;-76
2023/05/12 11:46:25;;;;;;;4.93;2.27;;;22.80;99.90;;;;;;4433784;28;657134;-72
2023/05/12 11:49:14;;;;;;;7.13;3.10;;;23.40;99.90;;;;;;4422088;28;658383;-76
2023/05/12 11:52:02;;;;;;;10.63;3.07;;;23.50;99.90;;;;;;4420651;28;657610;-74
2023/05/12 11:54:50;;;;;;;5.87;2.80;;;23.30;99.90;;;;;;4434377;28;660470;-76
2023/05/12 11:57:38;;;;;;;7.07;2.70;;;23.20;99.90;;;;;;4417212;28;658647;-76
2023/05/12 12:00:30;;;;;;;9.80;3.13;;;23.60;99.90;;;;;;4424497;28;657831;-73
2023/05/12 12:03:17;;;;;;;11.57;3.33;;;23.60;99.90;;;;;;4416008;28;658117;-74
2023/05/12 12:06:09;;;;;;;5.93;2.50;;;23.50;99.90;;;;;;4431127;28;658719;-75
2023/05/12 12:08:58;;;;;;;6.07;2.47;;;23.10;99.90;;;;;;4394219;28;658388;-75
2023/05/12 12:11:45;;;;;;;5.07;2.93;;;22.20;99.90;;;;;;4404025;28;658942;-76
2023/05/12 12:14:33;;;;;;;6.00;3.13;;;21.50;99.90;;;;;;4437460;28;658347;-73
2023/05/12 12:17:27;;;;;;;17.07;5.67;;;21.10;99.90;;;;;;4418537;28;658244;-74
2023/05/12 12:20:16;;;;;;;7.40;2.97;;;21.00;99.90;;;;;;4417780;28;658603;-75
2023/05/12 12:23:05;;;;;;;6.13;2.47;;;21.00;99.90;;;;;;4417926;28;658858;-76
2023/05/12 12:25:52;;;;;;;5.97;2.50;;;21.20;99.90;;;;;;4411758;28;658975;-76
2023/05/12 12:28:39;;;;;;;5.83;2.70;;;21.60;99.90;;;;;;4434153;28;657093;-75
2023/05/12 12:31:26;;;;;;;6.30;2.60;;;21.90;99.90;;;;;;4419340;28;657900;-75
2023/05/12 12:34:13;;;;;;;6.30;2.30;;;22.70;99.90;;;;;;4444389;28;657672;-75
2023/05/12 12:37:01;;;;;;;4.07;2.10;;;22.80;99.90;;;;;;4424164;28;657475;-75
2023/05/12 12:39:49;;;;;;;3.40;2.50;;;22.60;99.90;;;;;;4442782;28;658086;-73
2023/05/12 12:42:38;;;;;;;4.90;2.30;;;22.30;99.90;;;;;;4318107;28;657929;-74
2023/05/12 12:45:25;;;;;;;5.60;2.40;;;22.80;99.90;;;;;;4311108;28;657488;-72
2023/05/12 12:48:13;;;;;;;4.73;2.30;;;23.20;99.90;;;;;;4348907;28;657370;-73
2023/05/12 12:51:01;;;;;;;10.63;2.97;;;24.30;99.90;;;;;;4431257;28;657465;-74
2023/05/12 12:53:48;;;;;;;6.43;2.30;;;24.90;99.90;;;;;;4443466;28;658932;-77
2023/05/12 12:56:37;;;;;;;35.60;12.33;;;24.60;99.90;;;;;;4425416;28;657343;-74
2023/05/12 12:59:24;;;;;;;33.03;12.40;;;23.70;99.90;;;;;;4441798;28;659877;-76
2023/05/12 13:02:11;;;;;;;11.30;5.77;;;23.30;99.90;;;;;;4420059;28;660011;-74
2023/05/12 13:05:02;;;;;;;5.87;2.90;;;23.50;99.90;;;;;;4437917;28;658776;-75
2023/05/12 13:07:50;;;;;;;5.40;3.27;;;23.30;99.90;;;;;;4420675;28;657286;-76
2023/05/12 13:10:40;;;;;;;9.07;3.27;;;22.70;99.90;;;;;;4423386;28;658527;-75
2023/05/12 13:13:28;;;;;;;13.63;2.40;;;22.80;99.90;;;;;;4418714;28;658231;-78
2023/05/12 13:16:15;;;;;;;3.97;2.20;;;23.20;99.90;;;;;;4418100;28;658517;-75
2023/05/12 13:19:03;;;;;;;7.90;2.30;;;23.10;99.90;;;;;;4441090;28;658599;-76
2023/05/12 13:21:50;;;;;;;7.23;2.50;;;22.40;99.90;;;;;;4421651;28;657774;-72
2023/05/12 13:24:37;;;;;;;16.67;3.47;;;22.10;99.90;;;;;;4444198;28;657689;-77
2023/05/12 13:27:25;;;;;;;8.70;2.13;;;22.50;99.90;;;;;;4443280;28;658279;-75
2023/05/12 13:30:14;;;;;;;6.37;2.70;;;23.20;99.90;;;;;;4443344;28;658548;-74
2023/05/12 13:33:01;;;;;;;6.30;2.70;;;23.70;99.90;;;;;;4409725;28;657639;-76
2023/05/12 13:35:48;;;;;;;4.43;2.70;;;23.50;99.90;;;;;;4443257;28;658217;-75
2023/05/12 13:38:36;;;;;;;12.87;2.30;;;23.20;99.90;;;;;;4421389;28;657888;-76
2023/05/12 13:41:23;;;;;;;6.17;2.30;;;22.50;99.90;;;;;;4441910;28;660202;-74
2023/05/12 13:44:10;;;;;;;5.83;3.23;;;21.80;99.90;;;;;;4417676;28;658224;-72
2023/05/12 13:46:59;;;;;;;9.27;3.17;;;21.40;99.90;;;;;;4447864;28;657810;-76
2023/05/12 13:49:46;;;;;;;6.97;2.87;;;21.60;99.90;;;;;;4421558;28;659364;-76
2023/05/12 13:52:33;;;;;;;6.30;2.23;;;22.20;99.90;;;;;;4438684;28;658161;-74
2023/05/12 13:55:21;;;;;;;5.87;2.23;;;22.80;99.90;;;;;;4420569;28;658018;-74
2023/05/12 13:58:08;;;;;;;6.47;2.73;;;23.10;99.90;;;;;;4446533;28;658492;-76
2023/05/12 14:00:55;;;;;;;4.77;2.50;;;22.90;99.90;;;;;;4423873;28;657330;-72
2023/05/12 14:03:44;;;;;;;6.30;2.27;;;22.90;99.90;;;;;;4444010;28;658406;-77
2023/05/12 14:06:32;;;;;;;6.77;2.50;;;23.20;99.90;;;;;;4423990;28;657563;-75
2023/05/12 14:09:19;;;;;;;9.13;2.40;;;22.90;99.90;;;;;;4432945;28;658189;-76
2023/05/12 14:12:07;;;;;;;4.10;2.33;;;23.10;99.90;;;;;;4422968;28;657395;-75
2023/05/12 14:14:54;;;;;;;7.43;2.43;;;23.00;99.90;;;;;;4443786;28;657717;-74
2023/05/12 14:17:41;;;;;;;9.23;2.83;;;22.70;99.90;;;;;;4420216;28;657690;-74
2023/05/12 14:20:30;;;;;;;6.87;3.00;;;21.90;99.90;;;;;;4444133;28;657763;-75